createdAt,value
2022-10-08T00:01:17.130Z,5.01
2022-10-08T00:03:46.858Z,5.07
2022-10-08T00:06:30.341Z,5.08
2022-10-08T00:09:02.533Z,5.02
2022-10-08T00:11:33.067Z,5.07
2022-10-08T00:14:02.239Z,5.11
2022-10-08T00:16:42.139Z,5.16
2022-10-08T00:19:13.092Z,5.18
2022-10-08T00:21:42.360Z,5.22
2022-10-08T00:24:15.645Z,5.31
2022-10-08T00:26:44.375Z,5.26
2022-10-08T00:29:14.156Z,5.28
2022-10-08T00:31:45.659Z,5.29
2022-10-08T00:34:16.121Z,5.27
2022-10-08T00:36:43.340Z,5.27
2022-10-08T00:39:13.954Z,5.21
2022-10-08T00:41:41.817Z,5.22
2022-10-08T00:44:46.414Z,5.22
2022-10-08T00:47:19.471Z,5.18
2022-10-08T00:49:49.560Z,5.16
2022-10-08T00:52:18.539Z,5.20
2022-10-08T00:54:46.303Z,5.21
2022-10-08T00:57:13.156Z,5.21
2022-10-08T00:59:40.097Z,5.21
2022-10-08T01:02:10.321Z,5.16
2022-10-08T01:04:38.794Z,5.13
2022-10-08T01:07:11.633Z,5.16
2022-10-08T01:09:45.941Z,5.11
2022-10-08T01:12:31.680Z,5.14
2022-10-08T01:15:27.662Z,5.10
2022-10-08T01:18:10.267Z,5.03
2022-10-08T01:21:02.514Z,5.03
2022-10-08T01:23:58.329Z,5.04
2022-10-08T01:26:28.200Z,5.02
2022-10-08T01:29:17.875Z,5.00
2022-10-08T01:31:50.170Z,4.96
2022-10-08T01:34:37.837Z,4.92
2022-10-08T01:37:09.284Z,4.82
2022-10-08T01:39:37.497Z,4.92
2022-10-08T01:42:09.764Z,4.90
2022-10-08T01:44:43.265Z,4.84
2022-10-08T01:47:16.203Z,4.86
2022-10-08T01:49:49.957Z,4.83
2022-10-08T01:52:23.459Z,4.87
2022-10-08T01:54:55.164Z,4.89
2022-10-08T01:57:24.510Z,4.92
2022-10-08T01:59:57.449Z,4.97
2022-10-08T02:02:26.126Z,4.98
2022-10-08T02:04:55.243Z,4.93
2022-10-08T02:07:29.192Z,4.85
2022-10-08T02:10:23.737Z,4.84
2022-10-08T02:12:50.936Z,4.81
2022-10-08T02:15:31.802Z,4.87
2022-10-08T02:18:16.921Z,4.86
2022-10-08T02:20:56.063Z,4.85
2022-10-08T02:23:30.011Z,4.77
2022-10-08T02:26:02.959Z,4.76
2022-10-08T02:29:25.148Z,4.80
2022-10-08T02:32:40.525Z,4.80
2022-10-08T02:35:15.301Z,4.76
2022-10-08T02:37:48.129Z,4.76
2022-10-08T02:40:17.534Z,4.69
2022-10-08T02:42:50.055Z,4.65
2022-10-08T02:45:27.151Z,4.62
2022-10-08T02:48:11.963Z,4.54
2022-10-08T02:50:43.303Z,4.58
2022-10-08T02:53:14.693Z,4.67
2022-10-08T02:55:56.493Z,4.93
2022-10-08T02:58:23.501Z,5.11
2022-10-08T03:00:57.438Z,5.30
2022-10-08T03:03:36.432Z,5.51
2022-10-08T03:06:10.028Z,5.72
2022-10-08T03:08:41.793Z,5.93
2022-10-08T03:11:09.962Z,6.11
2022-10-08T03:13:40.695Z,6.21
2022-10-08T03:16:12.085Z,6.19
2022-10-08T03:18:39.810Z,6.14
2022-10-08T03:21:09.779Z,6.03
2022-10-08T03:23:36.767Z,5.94
2022-10-08T03:26:03.611Z,5.81
2022-10-08T03:28:30.638Z,5.71
2022-10-08T03:30:57.666Z,5.56
2022-10-08T03:33:24.650Z,5.40
2022-10-08T03:35:51.502Z,5.28
2022-10-08T03:38:18.436Z,5.19
2022-10-08T03:40:55.452Z,5.15
2022-10-08T03:43:22.788Z,5.07
2022-10-08T03:45:53.951Z,5.01
2022-10-08T03:48:22.397Z,4.96
2022-10-08T03:50:54.668Z,4.84
2022-10-08T03:53:22.293Z,4.77
2022-10-08T03:55:49.786Z,4.65
2022-10-08T03:58:17.248Z,4.60
2022-10-08T04:00:44.192Z,4.59
2022-10-08T04:03:11.452Z,4.59
2022-10-08T04:05:38.338Z,4.51
2022-10-08T04:08:05.183Z,4.40
2022-10-08T04:10:32.123Z,4.28
2022-10-08T04:12:58.966Z,4.20
2022-10-08T04:15:25.853Z,4.13
2022-10-08T04:17:52.807Z,4.11
2022-10-08T04:20:19.649Z,4.03
2022-10-08T04:22:46.599Z,3.98
2022-10-08T04:25:13.751Z,3.96
2022-10-08T04:27:40.902Z,3.87
2022-10-08T04:30:08.407Z,3.88
2022-10-08T04:32:35.499Z,3.79
2022-10-08T04:35:02.450Z,3.75
2022-10-08T04:37:29.401Z,3.73
2022-10-08T04:39:56.264Z,3.69
2022-10-08T04:42:23.230Z,3.66
2022-10-08T04:44:50.181Z,3.63
2022-10-08T04:47:17.164Z,3.57
2022-10-08T04:49:44.830Z,3.53
2022-10-08T04:52:12.339Z,3.52
2022-10-08T04:54:39.177Z,3.56
2022-10-08T04:57:06.080Z,3.63
2022-10-08T04:59:33.024Z,3.73
2022-10-08T05:02:00.716Z,3.80
2022-10-08T05:04:27.524Z,3.89
2022-10-08T05:06:54.444Z,3.92
2022-10-08T05:09:21.562Z,4.04
2022-10-08T05:11:51.172Z,4.02
2022-10-08T05:14:18.014Z,4.00
2022-10-08T05:16:44.958Z,3.99
2022-10-08T05:19:11.853Z,3.95
2022-10-08T05:21:38.708Z,3.94
2022-10-08T05:24:08.306Z,3.94
2022-10-08T05:26:58.395Z,4.03
2022-10-08T05:29:25.544Z,4.01
2022-10-08T05:31:52.437Z,3.92
2022-10-08T05:34:19.352Z,3.79
2022-10-08T05:36:46.438Z,3.66
2022-10-08T05:39:13.586Z,3.60
2022-10-08T05:41:40.989Z,3.54
2022-10-08T05:44:08.696Z,3.59
2022-10-08T05:46:36.771Z,3.58
2022-10-08T05:49:06.427Z,3.55
2022-10-08T05:51:33.686Z,3.56
2022-10-08T05:54:01.140Z,3.65
2022-10-08T05:56:29.226Z,3.78
2022-10-08T05:58:56.242Z,3.82
2022-10-08T06:01:26.383Z,3.78
2022-10-08T06:04:08.938Z,3.75
2022-10-08T06:06:41.258Z,3.78
2022-10-08T06:09:10.809Z,3.81
2022-10-08T06:11:38.123Z,3.83
2022-10-08T06:14:07.247Z,3.77
2022-10-08T06:16:35.083Z,3.84
2022-10-08T06:19:03.380Z,3.87
2022-10-08T06:21:30.871Z,3.94
2022-10-08T06:24:00.475Z,4.03
2022-10-08T06:26:35.157Z,4.12
2022-10-08T06:29:03.574Z,4.25
2022-10-08T06:31:30.472Z,4.35
2022-10-08T06:33:58.487Z,4.45
2022-10-08T06:36:28.003Z,4.53
2022-10-08T06:38:57.320Z,4.64
2022-10-08T06:41:25.417Z,4.75
2022-10-08T06:43:52.372Z,4.84
2022-10-08T06:46:19.786Z,4.78
2022-10-08T06:48:47.029Z,4.67
2022-10-08T06:51:16.516Z,4.57
2022-10-08T06:53:44.655Z,4.45
2022-10-08T06:56:14.975Z,4.35
2022-10-08T06:58:45.088Z,4.28
2022-10-08T07:01:17.987Z,4.25
2022-10-08T07:03:49.681Z,4.30
2022-10-08T07:06:16.548Z,4.25
2022-10-08T07:08:43.755Z,4.22
2022-10-08T07:11:17.329Z,4.23
2022-10-08T07:13:44.791Z,4.20
2022-10-08T07:16:20.824Z,4.20
2022-10-08T07:18:49.621Z,4.37
2022-10-08T07:21:18.228Z,4.57
2022-10-08T07:23:45.442Z,4.76
2022-10-08T07:26:24.401Z,4.97
2022-10-08T07:28:51.230Z,5.16
2022-10-08T07:31:24.155Z,5.49
2022-10-08T07:33:51.529Z,5.89
2022-10-08T07:36:20.678Z,6.34
2022-10-08T07:38:50.695Z,6.93
2022-10-08T07:41:17.629Z,7.42
2022-10-08T07:43:44.479Z,7.71
2022-10-08T07:46:12.385Z,7.79
2022-10-08T07:48:39.861Z,7.91
2022-10-08T07:51:11.927Z,7.97
2022-10-08T07:53:40.197Z,8.33
2022-10-08T07:56:08.365Z,8.80
2022-10-08T07:58:35.928Z,9.33
2022-10-08T08:01:05.073Z,9.84
2022-10-08T08:03:32.782Z,10.10
2022-10-08T08:06:09.464Z,10.06
2022-10-08T08:08:38.244Z,10.00
2022-10-08T08:11:06.606Z,10.22
2022-10-08T08:13:37.415Z,10.72
2022-10-08T08:16:11.295Z,10.94
2022-10-08T08:18:43.438Z,11.01
2022-10-08T08:21:24.511Z,11.05
2022-10-08T08:23:54.335Z,10.89
2022-10-08T08:26:26.648Z,10.65
2022-10-08T08:28:59.020Z,10.96
2022-10-08T08:31:28.613Z,11.18
2022-10-08T08:33:58.233Z,11.21
2022-10-08T08:36:34.084Z,11.12
2022-10-08T08:39:01.915Z,11.08
2022-10-08T08:42:06.389Z,10.90
2022-10-08T08:45:41.540Z,10.72
2022-10-08T08:48:12.049Z,10.62
2022-10-08T08:50:46.684Z,10.67
2022-10-08T08:53:15.370Z,10.76
2022-10-08T08:55:45.477Z,10.88
2022-10-08T08:58:12.578Z,11.03
2022-10-08T09:00:50.199Z,11.11
2022-10-08T09:03:23.219Z,11.05
2022-10-08T09:05:58.352Z,11.14
2022-10-08T09:08:39.321Z,10.97
2022-10-08T09:11:06.478Z,11.17
2022-10-08T09:13:41.514Z,11.37
2022-10-08T09:16:12.817Z,11.66
2022-10-08T09:18:40.516Z,12.00
2022-10-08T09:21:07.562Z,12.20
2022-10-08T09:23:34.658Z,12.46
2022-10-08T09:26:17.531Z,12.76
2022-10-08T09:28:50.106Z,13.19
2022-10-08T09:31:29.758Z,13.40
2022-10-08T09:33:59.765Z,13.57
2022-10-08T09:36:42.327Z,13.53
2022-10-08T09:39:22.591Z,13.57
2022-10-08T09:42:18.661Z,13.53
2022-10-08T09:44:52.583Z,13.59
2022-10-08T09:47:24.274Z,13.54
2022-10-08T09:50:20.007Z,13.45
2022-10-08T09:52:54.473Z,13.51
2022-10-08T09:55:32.165Z,13.65
2022-10-08T09:58:06.077Z,13.94
2022-10-08T10:00:39.700Z,14.20
2022-10-08T10:03:15.689Z,14.54
2022-10-08T10:05:42.990Z,14.92
2022-10-08T10:08:46.081Z,14.93
2022-10-08T10:11:20.197Z,15.40
2022-10-08T10:13:49.950Z,15.64
2022-10-08T10:16:29.817Z,15.83
2022-10-08T10:19:04.904Z,16.11
2022-10-08T10:21:46.729Z,16.42
2022-10-08T10:24:32.327Z,16.66
2022-10-08T10:27:11.856Z,16.98
2022-10-08T10:29:47.655Z,17.44
2022-10-08T10:32:33.287Z,17.91
2022-10-08T10:35:11.149Z,18.21
2022-10-08T10:38:09.781Z,18.82
2022-10-08T10:40:47.269Z,19.35
2022-10-08T10:43:50.973Z,19.35
2022-10-08T10:46:46.696Z,19.49
2022-10-08T10:49:23.581Z,19.72
2022-10-08T10:52:05.531Z,19.79
2022-10-08T10:54:32.312Z,19.94
2022-10-08T10:57:05.764Z,20.04
2022-10-08T10:59:48.319Z,20.03
2022-10-08T11:02:31.775Z,20.02
2022-10-08T11:05:09.855Z,20.01
2022-10-08T11:07:42.548Z,19.98
2022-10-08T11:10:28.497Z,19.76
2022-10-08T11:13:05.407Z,19.62
2022-10-08T11:16:05.987Z,19.29
2022-10-08T11:18:54.553Z,18.71
2022-10-08T11:21:39.812Z,18.53
2022-10-08T11:24:17.467Z,18.10
2022-10-08T11:27:07.326Z,17.77
2022-10-08T11:29:51.341Z,17.48
2022-10-08T11:32:19.579Z,17.36
2022-10-08T11:35:14.162Z,17.22
2022-10-08T11:37:52.024Z,17.43
2022-10-08T11:40:44.920Z,17.80
2022-10-08T11:43:49.033Z,18.27
2022-10-08T11:46:29.077Z,18.67
2022-10-08T11:49:01.161Z,18.78
2022-10-08T11:51:32.606Z,18.90
2022-10-08T11:53:59.338Z,18.87
2022-10-08T11:56:26.139Z,18.76
2022-10-08T11:58:57.581Z,18.69
2022-10-08T12:01:24.987Z,18.68
2022-10-08T12:04:07.598Z,18.48
2022-10-08T12:06:35.876Z,18.37
2022-10-08T12:09:05.951Z,18.35
2022-10-08T12:11:32.701Z,18.36
2022-10-08T12:14:19.968Z,18.31
2022-10-08T12:16:55.958Z,18.33
2022-10-08T12:19:35.302Z,18.41
2022-10-08T12:22:14.788Z,18.45
2022-10-08T12:24:44.801Z,18.46
2022-10-08T12:27:17.612Z,18.32
2022-10-08T12:30:05.730Z,18.15
2022-10-08T12:32:44.767Z,17.99
2022-10-08T12:35:47.649Z,17.88
2022-10-08T12:38:36.464Z,17.92
2022-10-08T12:41:10.821Z,18.03
2022-10-08T12:43:53.188Z,18.11
2022-10-08T12:46:26.873Z,18.24
2022-10-08T12:49:35.453Z,18.32
2022-10-08T12:52:17.151Z,18.30
2022-10-08T12:55:04.187Z,18.25
2022-10-08T12:57:37.868Z,18.19
2022-10-08T13:00:11.445Z,18.12
2022-10-08T13:02:43.227Z,18.09
2022-10-08T13:05:31.015Z,17.89
2022-10-08T13:07:58.671Z,17.86
2022-10-08T13:10:28.535Z,17.76
2022-10-08T13:13:19.019Z,17.53
2022-10-08T13:15:45.861Z,17.60
2022-10-08T13:18:22.188Z,17.63
2022-10-08T13:21:03.920Z,17.49
2022-10-08T13:23:44.100Z,17.42
2022-10-08T13:26:38.679Z,17.43
2022-10-08T13:29:24.302Z,17.44
2022-10-08T13:32:04.873Z,17.72
2022-10-08T13:34:35.612Z,17.90
2022-10-08T13:37:04.963Z,18.02
2022-10-08T13:39:40.199Z,17.97
2022-10-08T13:42:28.754Z,17.81
2022-10-08T13:44:58.626Z,17.77
2022-10-08T13:47:27.661Z,17.81
2022-10-08T13:50:00.442Z,17.78
2022-10-08T13:52:29.948Z,17.81
2022-10-08T13:55:03.559Z,17.85
2022-10-08T13:57:30.701Z,17.95
2022-10-08T13:59:57.710Z,18.11
2022-10-08T14:02:44.663Z,18.15
2022-10-08T14:05:11.613Z,18.04
2022-10-08T14:07:39.172Z,18.04
2022-10-08T14:10:06.571Z,18.04
2022-10-08T14:12:35.472Z,18.02
2022-10-08T14:15:02.308Z,18.09
2022-10-08T14:17:29.208Z,18.07
2022-10-08T14:19:56.252Z,17.98
2022-10-08T14:22:23.495Z,17.89
2022-10-08T14:24:50.408Z,17.94
2022-10-08T14:27:17.551Z,17.95
2022-10-08T14:29:44.386Z,17.95
2022-10-08T14:32:12.048Z,17.84
2022-10-08T14:34:39.508Z,17.81
2022-10-08T14:37:06.979Z,17.69
2022-10-08T14:39:33.905Z,17.62
2022-10-08T14:42:00.909Z,17.60
2022-10-08T14:44:27.806Z,17.46
2022-10-08T14:46:54.698Z,17.36
2022-10-08T14:49:22.491Z,17.14
2022-10-08T14:51:49.299Z,17.08
2022-10-08T14:54:18.040Z,16.95
2022-10-08T14:56:45.128Z,16.82
2022-10-08T14:59:15.095Z,16.76
2022-10-08T15:01:42.089Z,16.74
2022-10-08T15:04:13.859Z,16.80
2022-10-08T15:06:41.304Z,16.83
2022-10-08T15:09:10.503Z,16.84
2022-10-08T15:11:37.409Z,16.86
2022-10-08T15:14:04.650Z,16.86
2022-10-08T15:16:31.683Z,16.83
2022-10-08T15:18:58.950Z,16.78
2022-10-08T15:21:25.946Z,16.77
2022-10-08T15:23:56.941Z,16.81
2022-10-08T15:26:23.936Z,16.76
2022-10-08T15:28:53.302Z,16.85
2022-10-08T15:31:22.375Z,16.92
2022-10-08T15:33:51.637Z,16.88
2022-10-08T15:36:25.497Z,16.87
2022-10-08T15:39:15.124Z,16.75
2022-10-08T15:41:44.268Z,16.65
2022-10-08T15:44:21.852Z,16.39
2022-10-08T15:46:50.802Z,16.21
2022-10-08T15:49:17.695Z,16.18
2022-10-08T15:51:44.750Z,16.10
2022-10-08T15:54:11.693Z,15.98
2022-10-08T15:56:38.525Z,15.83
2022-10-08T15:59:05.940Z,15.73
2022-10-08T16:01:32.930Z,15.68
2022-10-08T16:04:00.377Z,15.55
2022-10-08T16:06:37.735Z,15.45
2022-10-08T16:09:05.187Z,15.37
2022-10-08T16:11:33.779Z,15.31
2022-10-08T16:14:19.091Z,15.23
2022-10-08T16:16:46.461Z,15.20
2022-10-08T16:19:16.574Z,15.19
2022-10-08T16:21:45.354Z,15.17
2022-10-08T16:24:13.219Z,15.16
2022-10-08T16:26:40.987Z,15.18
2022-10-08T16:29:11.361Z,15.20
2022-10-08T16:31:39.491Z,15.18
2022-10-08T16:34:12.570Z,15.23
2022-10-08T16:36:39.819Z,15.25
2022-10-08T16:39:07.738Z,15.24
2022-10-08T16:41:36.785Z,15.26
2022-10-08T16:44:12.069Z,15.25
2022-10-08T16:46:43.230Z,15.21
2022-10-08T16:49:21.278Z,15.17
2022-10-08T16:51:51.760Z,15.09
2022-10-08T16:54:19.268Z,14.98
2022-10-08T16:56:46.720Z,14.91
2022-10-08T16:59:19.615Z,14.79
2022-10-08T17:01:50.232Z,14.77
2022-10-08T17:04:18.387Z,14.65
2022-10-08T17:06:46.170Z,14.48
2022-10-08T17:09:13.579Z,14.33
2022-10-08T17:11:42.119Z,14.24
2022-10-08T17:14:10.468Z,14.13
2022-10-08T17:16:38.389Z,14.06
2022-10-08T17:19:05.727Z,13.97
2022-10-08T17:21:35.080Z,13.93
2022-10-08T17:24:03.161Z,13.83
2022-10-08T17:26:31.110Z,13.78
2022-10-08T17:29:01.795Z,13.71
2022-10-08T17:31:29.504Z,13.61
2022-10-08T17:33:56.695Z,13.54
2022-10-08T17:36:26.676Z,13.44
2022-10-08T17:38:56.221Z,13.48
2022-10-08T17:41:27.374Z,13.44
2022-10-08T17:43:58.509Z,13.42
2022-10-08T17:46:37.734Z,13.38
2022-10-08T17:49:06.325Z,13.33
2022-10-08T17:51:33.681Z,13.27
2022-10-08T17:54:03.388Z,13.27
2022-10-08T17:56:31.035Z,13.19
2022-10-08T17:58:58.610Z,13.21
2022-10-08T18:01:31.356Z,13.16
2022-10-08T18:04:12.414Z,13.11
2022-10-08T18:06:42.994Z,13.08
2022-10-08T18:09:19.156Z,12.99
2022-10-08T18:11:48.931Z,13.01
2022-10-08T18:14:17.333Z,12.96
2022-10-08T18:16:48.226Z,12.90
2022-10-08T18:19:15.592Z,12.86
2022-10-08T18:21:42.485Z,12.82
2022-10-08T18:24:09.582Z,12.76
2022-10-08T18:26:37.247Z,12.68
2022-10-08T18:29:09.520Z,12.69
2022-10-08T18:31:37.603Z,12.68
2022-10-08T18:34:08.227Z,12.65
2022-10-08T18:36:37.469Z,12.58
2022-10-08T18:39:10.916Z,12.52
2022-10-08T18:41:43.286Z,12.47
2022-10-08T18:44:14.276Z,12.42
2022-10-08T18:46:44.836Z,12.22
2022-10-08T18:49:19.804Z,12.24
2022-10-08T18:51:49.041Z,12.15
2022-10-08T18:54:15.985Z,12.11
2022-10-08T18:56:43.037Z,12.08
2022-10-08T18:59:15.352Z,12.06
2022-10-08T19:01:45.529Z,12.09
2022-10-08T19:04:18.515Z,12.08
2022-10-08T19:06:46.987Z,12.06
2022-10-08T19:09:14.188Z,12.00
2022-10-08T19:11:45.299Z,11.89
2022-10-08T19:14:15.465Z,11.88
2022-10-08T19:16:43.524Z,11.86
2022-10-08T19:19:18.154Z,11.84
2022-10-08T19:21:45.861Z,11.83
2022-10-08T19:24:20.957Z,11.82
2022-10-08T19:26:48.862Z,11.80
2022-10-08T19:29:25.591Z,11.78
2022-10-08T19:31:52.586Z,11.77
2022-10-08T19:34:22.454Z,11.76
2022-10-08T19:36:50.473Z,11.72
2022-10-08T19:39:20.497Z,11.69
2022-10-08T19:41:47.951Z,11.65
2022-10-08T19:44:14.995Z,11.63
2022-10-08T19:46:42.165Z,11.61
2022-10-08T19:49:10.112Z,11.64
2022-10-08T19:51:37.631Z,11.63
2022-10-08T19:54:05.279Z,11.60
2022-10-08T19:56:32.895Z,11.63
2022-10-08T19:58:59.992Z,11.61
2022-10-08T20:01:33.720Z,11.60
2022-10-08T20:04:02.687Z,11.61
2022-10-08T20:06:31.436Z,11.58
2022-10-08T20:09:01.647Z,11.57
2022-10-08T20:11:30.703Z,11.52
2022-10-08T20:13:58.926Z,11.58
2022-10-08T20:16:32.542Z,11.57
2022-10-08T20:19:02.638Z,11.53
2022-10-08T20:21:31.383Z,11.56
2022-10-08T20:23:58.653Z,11.56
2022-10-08T20:26:31.259Z,11.55
2022-10-08T20:29:06.804Z,11.49
2022-10-08T20:31:36.601Z,11.40
2022-10-08T20:34:27.081Z,11.23
2022-10-08T20:36:54.115Z,11.05
2022-10-08T20:39:22.582Z,10.91
2022-10-08T20:41:50.042Z,10.75
2022-10-08T20:44:17.921Z,10.71
2022-10-08T20:46:45.080Z,10.64
2022-10-08T20:49:13.514Z,10.61
2022-10-08T20:51:42.188Z,10.55
2022-10-08T20:54:12.248Z,10.44
2022-10-08T20:56:40.711Z,10.50
2022-10-08T20:59:14.891Z,10.46
2022-10-08T21:01:42.197Z,10.41
2022-10-08T21:04:09.597Z,10.39
2022-10-08T21:06:40.228Z,10.31
2022-10-08T21:09:08.414Z,10.26
2022-10-08T21:11:36.378Z,10.22
2022-10-08T21:14:04.656Z,10.19
2022-10-08T21:16:34.693Z,10.12
2022-10-08T21:19:04.071Z,10.08
2022-10-08T21:21:33.065Z,10.01
2022-10-08T21:24:00.982Z,9.95
2022-10-08T21:26:33.451Z,9.88
2022-10-08T21:29:03.110Z,9.83
2022-10-08T21:31:31.943Z,9.79
2022-10-08T21:33:59.565Z,9.79
2022-10-08T21:36:33.110Z,9.77
2022-10-08T21:39:01.338Z,9.82
2022-10-08T21:41:30.328Z,9.84
2022-10-08T21:44:00.097Z,9.85
2022-10-08T21:46:29.759Z,9.83
2022-10-08T21:49:01.930Z,9.80
2022-10-08T21:51:30.453Z,9.82
2022-10-08T21:53:59.697Z,9.88
2022-10-08T21:56:29.263Z,9.96
2022-10-08T21:59:01.091Z,10.05
2022-10-08T22:01:36.372Z,10.04
2022-10-08T22:04:07.449Z,10.11
2022-10-08T22:06:37.623Z,10.11
2022-10-08T22:09:10.803Z,10.05
2022-10-08T22:11:38.008Z,10.03
2022-10-08T22:14:05.515Z,9.96
2022-10-08T22:16:32.583Z,9.87
2022-10-08T22:18:59.845Z,9.81
2022-10-08T22:21:26.722Z,9.69
2022-10-08T22:23:54.268Z,9.62
2022-10-08T22:26:24.250Z,9.50
2022-10-08T22:28:51.337Z,9.44
2022-10-08T22:31:19.955Z,9.30
2022-10-08T22:33:47.939Z,9.25
2022-10-08T22:36:26.821Z,9.17
2022-10-08T22:38:54.636Z,9.10
2022-10-08T22:41:30.136Z,9.04
2022-10-08T22:43:57.820Z,9.03
2022-10-08T22:46:30.564Z,9.06
2022-10-08T22:49:03.503Z,9.04
2022-10-08T22:51:30.991Z,9.02
2022-10-08T22:53:58.470Z,9.02
2022-10-08T22:56:29.060Z,8.99
2022-10-08T22:58:56.405Z,8.98
2022-10-08T23:01:24.935Z,8.95
2022-10-08T23:03:52.390Z,8.95
2022-10-08T23:06:27.686Z,9.07
2022-10-08T23:09:06.355Z,9.24
2022-10-08T23:11:34.032Z,9.44
2022-10-08T23:14:01.942Z,9.62
2022-10-08T23:16:31.294Z,9.80
2022-10-08T23:19:00.790Z,9.96
2022-10-08T23:21:28.756Z,10.13
2022-10-08T23:23:56.522Z,10.26
2022-10-08T23:26:24.601Z,10.37
2022-10-08T23:28:56.307Z,10.45
2022-10-08T23:31:26.174Z,10.49
2022-10-08T23:33:54.489Z,10.51
2022-10-08T23:36:24.880Z,10.52
2022-10-08T23:38:52.807Z,10.54
2022-10-08T23:41:20.101Z,10.57
2022-10-08T23:43:49.249Z,10.62
2022-10-08T23:46:18.468Z,10.65
2022-10-08T23:48:45.738Z,10.69
2022-10-08T23:51:14.108Z,10.76
2022-10-08T23:53:41.723Z,10.69
2022-10-08T23:56:09.702Z,10.69
2022-10-08T23:58:37.055Z,10.63
